• Join FlightAware (Why Join?)
  • Login
  • US Flag 
05:55AM EDT


 

Airport Tracker/Info


-or-


 

Live Flight TrackerFlight Track Log ✈ SKW4453 ✈ 27-May-2013 ✈ KOAK - KLAX

Flight Track Log - Related Links

Times and Time Zones

All times are in EDT time to prevent confusion due to time zone crossing. See the SKW4453 flight status page for this flight to view local times or setup timezone preferences in your user account.

Time Position Orientation Groundspeed Altitude Reporting Facility
EDT Latitude Longitude Course Direction KTS MPH feet Rate Location/Type
10:02PM 37.7500 -122.2833 122° Southeast 195 224 2,200  Level Northern Cal TRACON
10:03PM 37.7833 -122.3333 310° West 237 273 5,100 2,400 Climbing Northern Cal TRACON
10:04PM 37.4846 -122.4654 218° Southwest  Level FlightAware Approximate
10:04PM 37.7667 -122.4000 252° West 266 306 7,100  Level Northern Cal TRACON
10:05PM 37.4152 -122.4239 149° Southeast  Level FlightAware Approximate
10:05PM 37.6833 -122.4333 198° South 293 337 10,200  Level Northern Cal TRACON
10:06PM 37.3478 -122.3746 150° Southeast  Level FlightAware Approximate
10:06PM 37.6000 -122.4500 189° South 319 367 12,700  Level Northern Cal TRACON
10:06PM 37.5636 -122.4447 173° South 319 367 13,600 2,220 Climbing Oakland Center
10:07PM 37.2634 -122.3101 122° Southeast  Level FlightAware Approximate
10:07PM 37.4897 -122.3586 137° Southeast 366 421 16,000  Level Oakland Center
10:08PM 37.4167 -122.2619 134° Southeast 380 437 17,900 1,860 Climbing Oakland Center
10:09PM 37.3389 -122.1581 133° Southeast 403 464 19,900 1,800 Climbing Oakland Center
10:10PM 37.2581 -122.0522 134° Southeast 419 482 21,600 1,800 Climbing Oakland Center
10:11PM 37.1747 -121.9408 133° Southeast 436 502 23,700 1,860 Climbing Oakland Center
10:12PM 37.0897 -121.8278 133° Southeast 444 511 25,400 1,560 Climbing Oakland Center
10:13PM 37.0011 -121.7131 134° Southeast 456 525 26,900 1,500 Climbing Oakland Center
10:14PM 36.9117 -121.5983 134° Southeast 460 529 28,500 1,500 Climbing Oakland Center
10:15PM 36.8167 -121.4719 133° Southeast 469 540 30,000 1,320 Climbing Oakland Center
10:16PM 36.7244 -121.3525 134° Southeast 476 548 31,300 1,260 Climbing Oakland Center
10:17PM 36.6306 -121.2308 134° Southeast 484 557 32,600 1,320 Climbing Oakland Center
10:18PM 36.5381 -121.1100 134° Southeast 482 555 34,100 1,080 Climbing Oakland Center
10:19PM 36.4456 -120.9911 134° Southeast 480 552 34,900 420 Climbing Oakland Center
10:20PM 36.3322 -120.8447 134° Southeast 489 563 35,000  Climbing Oakland Center
10:21PM 36.2367 -120.7236 134° Southeast 491 565 35,000  Level Oakland Center
10:22PM 36.1408 -120.6022 134° Southeast 492 566 35,000  Level Oakland Center
10:23PM 36.0444 -120.4797 134° Southeast 494 568 35,000  Level Oakland Center
10:24PM 35.9506 -120.3592 134° Southeast 488 562 35,000  Level Oakland Center
10:26PM 35.8542 -120.2392 135° Southeast 488 562 35,000 -60 Level Oakland Center
10:27PM 35.7589 -120.1189 134° Southeast 488 562 34,900  Descending Oakland Center
10:28PM 35.6625 -119.9986 135° Southeast 488 562 35,000 60 Climbing Oakland Center
10:28PM 35.6211 -119.9550 139° Southeast 487 560 35,000  Level Los Angeles Center
10:29PM 35.5100 -119.8608 145° Southeast 482 555 35,000  Level Los Angeles Center
10:30PM 35.4433 -119.8025 145° Southeast 483 556 35,000  Level Oakland Center
10:31PM 35.3333 -119.7078 145° Southeast 482 555 35,000  Level Oakland Center
10:31PM 35.2894 -119.6697 145° Southeast 482 555 35,000  Level Los Angeles Center
10:32PM 35.1789 -119.5758 145° Southeast 482 555 35,000 -1,140 Level Los Angeles Center
10:33PM 35.0683 -119.4806 145° Southeast 485 558 32,700 -2,640 Descending Los Angeles Center
10:34PM 34.9567 -119.3858 145° Southeast 487 560 29,600 -3,000 Descending Los Angeles Center
10:35PM 34.8481 -119.2933 145° Southeast 480 552 26,600 -3,240 Descending Los Angeles Center
10:36PM 34.7189 -119.1828 145° Southeast 475 547 23,000 -3,060 Descending Los Angeles Center
10:37PM 34.6206 -119.1031 146° Southeast 485 558 20,400 -2,880 Descending Los Angeles Center
10:38PM 34.4947 -118.9975 145° Southeast 451 519 17,100 -2,640 Descending Los Angeles Center
10:39PM 34.3994 -118.9164 145° Southeast 416 479 15,000 -1,740 Descending Los Angeles Center
10:40PM 34.3094 -118.8644 155° Southeast 357 411 13,600 -1,200 Descending Los Angeles Center
10:41PM 34.2242 -118.8328 163° South 320 368 12,600 -780 Descending Los Angeles Center
10:42PM 34.1400 -118.8022 163° South 316 364 12,000 -720 Descending Los Angeles Center
10:43PM 34.0575 -118.7686 161° South 287 330 11,200 -960 Descending Los Angeles Center
10:44PM 34.0300 -118.6694 108° East 300 345 10,100 -780 Descending Los Angeles Center
10:45PM 34.0228 -118.5844 96° East 254 292 9,700 -720 Descending Los Angeles Center
10:46PM 34.0158 -118.5086 96° East 229 264 8,700 -1,020 Descending Los Angeles Center
10:47PM 34.0153 -118.4333 90° East 211 243 7,700 -1,200 Descending Los Angeles Center
10:48PM 34.0203 -118.3606 85° East 214 246 6,300 -1,440 Descending Los Angeles Center
10:49PM 34.0269 -118.2908 83° East 212 244 4,800 -1,140 Descending Los Angeles Center
10:51PM 34.0294 -118.2231 87° East 205 236 4,000 -780 Descending Los Angeles Center
10:52PM 34.0292 -118.1539 90° East 206 237 3,300 -540 Descending Los Angeles Center
10:53PM 34.0181 -118.0956 103° East 203 234 3,000 -120 Descending Los Angeles Center
10:54PM 33.9833 -118.1500 232° Southwest 192 221 3,100  Climbing Southern California TRACON
10:55PM 33.9667 -118.2000 248° West 191 220 3,000 -420 Descending Southern California TRACON
10:56PM 33.9667 -118.2694 270° West 189 217 2,300 -660 Descending Los Angeles Center